Wichita Mid Continent Airport
KICT : rendu visible

Aérodrome :











RETROUVEZ-NOUS SUR...

 
LOGIN :

S'inscrire | Disclaimer

   EN    FR    IT 

 









Légende :    VFR   VFR Marginal   IFR   IFR Intensif   IFR Très Intensif
Visi : 
Plafond : 
>= 8 km
>= 3000ft
5 à 8 km
1000 à 3000 ft
1500m à 5 km
500 à 1000 ft
800 à 1500m
200 à 500 ft
< 800m
< 200 ft
Symboles :   Orages  Brouillard  Fortes neiges  Fortes précipitations  Vent > 20 kt






- Altitude de l'aérodrome : 1333 ft
- Code IATA : ICT


KICT - Wichita Mid Continent

DERNIER METAR :
  • 191139Z 31011KT 10SM BKN013 BKN080 13/11 A2974 RMK AO2 T01280106

METARs EXPIRÉS :
  • 191053Z 25006KT 10SM BKN075 12/11 A2972 RMK AO2 SLP057 T01220106
  • 190953Z 16006KT 10SM BKN070 OVC085 13/11 A2969 RMK AO2 SLP046 T01280106
  • 190853Z 23003KT 10SM OVC080 13/11 A2969 RMK AO2 SLP045 LTG AND CB DSIPTD 60005 T01280106 53007

TAF KICT
Valide du 19 à 06h jusqu'au 20 à 06h UTC


190550Z 1906/2006 21007KT P6SM VCSH SCT080 OVC120
TEMPO 1906/1908 VRB17G26KT 6SM -TSRA BKN080CB
FM190800 35007KT P6SM VCSH OVC070
FM191100 35009KT P6SM SCT130
FM192300 04007KT P6SM SKC



MET'MAP, la Météo Aéronautique d'un coup d'oeil ! - Copyright ORBIFLY Décembre 2007 - Disclaimer

ORBIFLY MET'MAP TEAM :

Programmation & Développement : Alexandra Zaïnal
Conception & Développement : Baudouin d'Aumeries
Co-Programmation & Développement : Marc-Olivier Méhu
Soutien technique & logistique : Manuel Goepfert

Contact : metmap@orbifly.com




SOURCES & CREDITS :

   NOAA       Earth
Advisory